sensor_id;sensor_type;location;lat;lon;timestamp;P1;durP1;ratioP1;P2;durP2;ratioP2
20324;SDS011;10320;49.482;11.256;2022-10-13T00:00:40;46.17;;;27.77;;
20324;SDS011;10320;49.482;11.256;2022-10-13T00:03:06;42.20;;;28.20;;
20324;SDS011;10320;49.482;11.256;2022-10-13T00:05:32;40.70;;;25.47;;
20324;SDS011;10320;49.482;11.256;2022-10-13T00:07:58;42.23;;;26.73;;
20324;SDS011;10320;49.482;11.256;2022-10-13T00:10:24;41.60;;;26.17;;
20324;SDS011;10320;49.482;11.256;2022-10-13T00:12:51;37.73;;;24.83;;
20324;SDS011;10320;49.482;11.256;2022-10-13T00:15:17;40.73;;;26.77;;
20324;SDS011;10320;49.482;11.256;2022-10-13T00:17:43;46.00;;;26.50;;
20324;SDS011;10320;49.482;11.256;2022-10-13T00:20:09;42.77;;;27.27;;
20324;SDS011;10320;49.482;11.256;2022-10-13T00:22:36;42.70;;;27.47;;
20324;SDS011;10320;49.482;11.256;2022-10-13T00:25:02;43.40;;;27.27;;
20324;SDS011;10320;49.482;11.256;2022-10-13T00:27:28;45.13;;;27.17;;
20324;SDS011;10320;49.482;11.256;2022-10-13T00:29:54;39.60;;;26.07;;
20324;SDS011;10320;49.482;11.256;2022-10-13T00:32:21;41.20;;;27.17;;
20324;SDS011;10320;49.482;11.256;2022-10-13T00:34:48;36.90;;;25.40;;
20324;SDS011;10320;49.482;11.256;2022-10-13T00:37:14;35.93;;;25.33;;
20324;SDS011;10320;49.482;11.256;2022-10-13T00:39:40;40.53;;;26.20;;
20324;SDS011;10320;49.482;11.256;2022-10-13T00:42:06;36.90;;;25.03;;
20324;SDS011;10320;49.482;11.256;2022-10-13T00:47:19;40.27;;;26.13;;
20324;SDS011;10320;49.482;11.256;2022-10-13T00:49:45;41.67;;;25.40;;
20324;SDS011;10320;49.482;11.256;2022-10-13T00:52:12;42.57;;;26.70;;
20324;SDS011;10320;49.482;11.256;2022-10-13T00:54:39;46.47;;;26.97;;
20324;SDS011;10320;49.482;11.256;2022-10-13T00:57:05;41.70;;;27.13;;
20324;SDS011;10320;49.482;11.256;2022-10-13T00:59:31;40.07;;;26.77;;
20324;SDS011;10320;49.482;11.256;2022-10-13T01:01:59;41.47;;;27.17;;
20324;SDS011;10320;49.482;11.256;2022-10-13T01:04:26;42.87;;;28.43;;
20324;SDS011;10320;49.482;11.256;2022-10-13T01:06:52;44.93;;;28.20;;
20324;SDS011;10320;49.482;11.256;2022-10-13T01:09:19;43.30;;;27.37;;
20324;SDS011;10320;49.482;11.256;2022-10-13T01:11:48;40.47;;;26.97;;
20324;SDS011;10320;49.482;11.256;2022-10-13T01:16:47;39.60;;;26.37;;
20324;SDS011;10320;49.482;11.256;2022-10-13T01:21:44;41.30;;;25.97;;
20324;SDS011;10320;49.482;11.256;2022-10-13T01:27:16;40.17;;;26.50;;
20324;SDS011;10320;49.482;11.256;2022-10-13T01:34:54;44.90;;;26.70;;
20324;SDS011;10320;49.482;11.256;2022-10-13T01:39:52;37.27;;;26.33;;
20324;SDS011;10320;49.482;11.256;2022-10-13T01:42:30;40.10;;;26.30;;
20324;SDS011;10320;49.482;11.256;2022-10-13T01:44:59;40.53;;;26.33;;
20324;SDS011;10320;49.482;11.256;2022-10-13T01:47:26;40.47;;;26.93;;
20324;SDS011;10320;49.482;11.256;2022-10-13T01:49:53;39.20;;;25.77;;
20324;SDS011;10320;49.482;11.256;2022-10-13T01:52:21;42.70;;;26.77;;
20324;SDS011;10320;49.482;11.256;2022-10-13T01:54:50;41.03;;;25.83;;
20324;SDS011;10320;49.482;11.256;2022-10-13T01:57:28;41.33;;;26.37;;
20324;SDS011;10320;49.482;11.256;2022-10-13T01:59:56;37.93;;;25.30;;
20324;SDS011;10320;49.482;11.256;2022-10-13T02:02:34;43.40;;;27.13;;
20324;SDS011;10320;49.482;11.256;2022-10-13T02:05:06;39.83;;;25.43;;
20324;SDS011;10320;49.482;11.256;2022-10-13T02:07:35;43.20;;;26.43;;
20324;SDS011;10320;49.482;11.256;2022-10-13T02:12:54;51.47;;;29.23;;
20324;SDS011;10320;49.482;11.256;2022-10-13T02:15:23;40.20;;;27.30;;
20324;SDS011;10320;49.482;11.256;2022-10-13T02:17:50;39.30;;;26.40;;
20324;SDS011;10320;49.482;11.256;2022-10-13T02:20:16;41.77;;;28.67;;
20324;SDS011;10320;49.482;11.256;2022-10-13T02:22:44;45.17;;;28.07;;
20324;SDS011;10320;49.482;11.256;2022-10-13T02:25:10;47.10;;;28.60;;
20324;SDS011;10320;49.482;11.256;2022-10-13T02:27:36;45.40;;;28.57;;
20324;SDS011;10320;49.482;11.256;2022-10-13T02:30:02;42.57;;;27.57;;
20324;SDS011;10320;49.482;11.256;2022-10-13T02:32:29;48.20;;;28.30;;
20324;SDS011;10320;49.482;11.256;2022-10-13T02:34:55;47.30;;;28.60;;
20324;SDS011;10320;49.482;11.256;2022-10-13T02:37:21;40.87;;;27.80;;
20324;SDS011;10320;49.482;11.256;2022-10-13T02:39:49;40.47;;;26.23;;
20324;SDS011;10320;49.482;11.256;2022-10-13T02:42:15;38.97;;;25.60;;
20324;SDS011;10320;49.482;11.256;2022-10-13T02:44:41;39.87;;;26.70;;
20324;SDS011;10320;49.482;11.256;2022-10-13T02:47:07;43.23;;;26.03;;
20324;SDS011;10320;49.482;11.256;2022-10-13T02:49:33;38.20;;;25.50;;
20324;SDS011;10320;49.482;11.256;2022-10-13T02:51:59;43.07;;;26.90;;
20324;SDS011;10320;49.482;11.256;2022-10-13T02:54:25;40.67;;;25.43;;
20324;SDS011;10320;49.482;11.256;2022-10-13T02:56:52;41.57;;;25.17;;
20324;SDS011;10320;49.482;11.256;2022-10-13T02:59:18;37.83;;;24.27;;
20324;SDS011;10320;49.482;11.256;2022-10-13T03:01:44;44.47;;;24.93;;
20324;SDS011;10320;49.482;11.256;2022-10-13T03:04:10;36.90;;;24.83;;
20324;SDS011;10320;49.482;11.256;2022-10-13T03:06:36;39.80;;;26.67;;
20324;SDS011;10320;49.482;11.256;2022-10-13T03:09:02;40.43;;;25.90;;
20324;SDS011;10320;49.482;11.256;2022-10-13T03:11:28;38.70;;;25.37;;
20324;SDS011;10320;49.482;11.256;2022-10-13T03:13:55;36.10;;;24.23;;
20324;SDS011;10320;49.482;11.256;2022-10-13T03:16:21;36.50;;;24.50;;
20324;SDS011;10320;49.482;11.256;2022-10-13T03:18:47;41.50;;;25.77;;
20324;SDS011;10320;49.482;11.256;2022-10-13T03:21:13;34.43;;;24.43;;
20324;SDS011;10320;49.482;11.256;2022-10-13T03:23:39;40.67;;;26.23;;
20324;SDS011;10320;49.482;11.256;2022-10-13T03:26:05;37.03;;;25.63;;
20324;SDS011;10320;49.482;11.256;2022-10-13T03:28:31;39.53;;;25.10;;
20324;SDS011;10320;49.482;11.256;2022-10-13T03:31:01;38.93;;;24.83;;
20324;SDS011;10320;49.482;11.256;2022-10-13T03:33:27;37.13;;;24.30;;
20324;SDS011;10320;49.482;11.256;2022-10-13T03:35:53;35.80;;;24.97;;
20324;SDS011;10320;49.482;11.256;2022-10-13T03:38:19;36.40;;;25.10;;
20324;SDS011;10320;49.482;11.256;2022-10-13T03:40:45;34.70;;;24.03;;
20324;SDS011;10320;49.482;11.256;2022-10-13T03:43:11;35.60;;;23.87;;
20324;SDS011;10320;49.482;11.256;2022-10-13T03:45:37;33.93;;;23.40;;
20324;SDS011;10320;49.482;11.256;2022-10-13T03:48:03;39.93;;;24.57;;
20324;SDS011;10320;49.482;11.256;2022-10-13T03:50:29;32.90;;;23.67;;
20324;SDS011;10320;49.482;11.256;2022-10-13T03:52:56;38.63;;;25.80;;
20324;SDS011;10320;49.482;11.256;2022-10-13T03:55:22;37.03;;;24.73;;
20324;SDS011;10320;49.482;11.256;2022-10-13T03:57:48;37.87;;;25.03;;
20324;SDS011;10320;49.482;11.256;2022-10-13T04:00:14;38.60;;;25.27;;
20324;SDS011;10320;49.482;11.256;2022-10-13T04:02:40;35.97;;;25.33;;
20324;SDS011;10320;49.482;11.256;2022-10-13T04:05:06;33.70;;;24.20;;
20324;SDS011;10320;49.482;11.256;2022-10-13T04:07:33;33.90;;;22.87;;
20324;SDS011;10320;49.482;11.256;2022-10-13T04:09:59;33.43;;;24.23;;
20324;SDS011;10320;49.482;11.256;2022-10-13T04:12:24;35.70;;;23.50;;
20324;SDS011;10320;49.482;11.256;2022-10-13T04:14:50;33.77;;;24.23;;
20324;SDS011;10320;49.482;11.256;2022-10-13T04:17:16;33.40;;;22.53;;
20324;SDS011;10320;49.482;11.256;2022-10-13T04:19:42;32.43;;;23.97;;
20324;SDS011;10320;49.482;11.256;2022-10-13T04:22:08;34.83;;;24.07;;
20324;SDS011;10320;49.482;11.256;2022-10-13T04:24:34;35.20;;;24.10;;
20324;SDS011;10320;49.482;11.256;2022-10-13T04:27:01;37.13;;;25.73;;
20324;SDS011;10320;49.482;11.256;2022-10-13T04:29:27;39.37;;;26.73;;
20324;SDS011;10320;49.482;11.256;2022-10-13T04:31:54;36.13;;;25.60;;
20324;SDS011;10320;49.482;11.256;2022-10-13T04:34:20;36.83;;;25.67;;
20324;SDS011;10320;49.482;11.256;2022-10-13T04:36:48;34.37;;;24.93;;
20324;SDS011;10320;49.482;11.256;2022-10-13T04:39:15;35.60;;;25.23;;
20324;SDS011;10320;49.482;11.256;2022-10-13T04:41:42;36.37;;;25.37;;
20324;SDS011;10320;49.482;11.256;2022-10-13T04:44:08;33.90;;;24.73;;
20324;SDS011;10320;49.482;11.256;2022-10-13T04:46:34;36.33;;;26.00;;
20324;SDS011;10320;49.482;11.256;2022-10-13T04:49:00;32.90;;;25.00;;
20324;SDS011;10320;49.482;11.256;2022-10-13T04:51:27;34.33;;;25.20;;
20324;SDS011;10320;49.482;11.256;2022-10-13T04:53:54;35.87;;;25.67;;
20324;SDS011;10320;49.482;11.256;2022-10-13T04:56:20;31.60;;;24.63;;
20324;SDS011;10320;49.482;11.256;2022-10-13T04:58:46;32.93;;;25.60;;
20324;SDS011;10320;49.482;11.256;2022-10-13T05:01:14;30.67;;;24.50;;
20324;SDS011;10320;49.482;11.256;2022-10-13T05:03:40;32.83;;;24.03;;
20324;SDS011;10320;49.482;11.256;2022-10-13T05:06:12;32.20;;;23.90;;
20324;SDS011;10320;49.482;11.256;2022-10-13T05:08:38;32.40;;;23.37;;
20324;SDS011;10320;49.482;11.256;2022-10-13T05:11:04;32.50;;;23.23;;
20324;SDS011;10320;49.482;11.256;2022-10-13T05:13:30;29.90;;;23.10;;
20324;SDS011;10320;49.482;11.256;2022-10-13T05:15:56;29.00;;;22.40;;
20324;SDS011;10320;49.482;11.256;2022-10-13T05:18:22;28.77;;;22.97;;
20324;SDS011;10320;49.482;11.256;2022-10-13T05:20:48;29.33;;;21.73;;
20324;SDS011;10320;49.482;11.256;2022-10-13T05:23:14;29.00;;;22.27;;
20324;SDS011;10320;49.482;11.256;2022-10-13T05:25:41;27.07;;;21.30;;
20324;SDS011;10320;49.482;11.256;2022-10-13T05:28:07;28.43;;;21.20;;
20324;SDS011;10320;49.482;11.256;2022-10-13T05:30:33;29.67;;;22.87;;
20324;SDS011;10320;49.482;11.256;2022-10-13T05:32:59;31.93;;;26.00;;
20324;SDS011;10320;49.482;11.256;2022-10-13T05:35:26;43.47;;;35.43;;
20324;SDS011;10320;49.482;11.256;2022-10-13T05:37:52;35.17;;;28.63;;
20324;SDS011;10320;49.482;11.256;2022-10-13T05:40:18;33.20;;;25.13;;
20324;SDS011;10320;49.482;11.256;2022-10-13T05:42:48;32.27;;;27.10;;
20324;SDS011;10320;49.482;11.256;2022-10-13T05:45:14;32.37;;;26.90;;
20324;SDS011;10320;49.482;11.256;2022-10-13T05:47:40;35.17;;;26.63;;
20324;SDS011;10320;49.482;11.256;2022-10-13T05:50:06;31.27;;;24.97;;
20324;SDS011;10320;49.482;11.256;2022-10-13T05:52:32;30.60;;;24.23;;
20324;SDS011;10320;49.482;11.256;2022-10-13T05:54:59;30.13;;;24.00;;
20324;SDS011;10320;49.482;11.256;2022-10-13T05:57:30;29.97;;;24.30;;
20324;SDS011;10320;49.482;11.256;2022-10-13T05:59:57;29.90;;;22.97;;
20324;SDS011;10320;49.482;11.256;2022-10-13T06:02:25;29.00;;;23.80;;
20324;SDS011;10320;49.482;11.256;2022-10-13T06:04:55;31.07;;;23.97;;
20324;SDS011;10320;49.482;11.256;2022-10-13T06:07:22;29.07;;;24.17;;
20324;SDS011;10320;49.482;11.256;2022-10-13T06:09:49;28.13;;;23.63;;
20324;SDS011;10320;49.482;11.256;2022-10-13T06:12:15;26.93;;;23.80;;
20324;SDS011;10320;49.482;11.256;2022-10-13T06:14:41;24.07;;;21.47;;
20324;SDS011;10320;49.482;11.256;2022-10-13T06:17:07;25.63;;;21.17;;
20324;SDS011;10320;49.482;11.256;2022-10-13T06:19:33;24.43;;;20.73;;
20324;SDS011;10320;49.482;11.256;2022-10-13T06:21:59;24.70;;;20.77;;
20324;SDS011;10320;49.482;11.256;2022-10-13T06:24:25;28.17;;;21.07;;
20324;SDS011;10320;49.482;11.256;2022-10-13T06:26:51;24.13;;;20.20;;
20324;SDS011;10320;49.482;11.256;2022-10-13T06:29:17;24.70;;;20.57;;
20324;SDS011;10320;49.482;11.256;2022-10-13T06:31:43;26.17;;;20.97;;
20324;SDS011;10320;49.482;11.256;2022-10-13T06:34:09;23.70;;;20.57;;
20324;SDS011;10320;49.482;11.256;2022-10-13T06:36:36;27.23;;;20.93;;
20324;SDS011;10320;49.482;11.256;2022-10-13T06:39:02;25.87;;;20.80;;
20324;SDS011;10320;49.482;11.256;2022-10-13T06:41:28;26.73;;;20.80;;
20324;SDS011;10320;49.482;11.256;2022-10-13T06:43:54;25.40;;;21.57;;
20324;SDS011;10320;49.482;11.256;2022-10-13T06:46:20;28.63;;;22.27;;
20324;SDS011;10320;49.482;11.256;2022-10-13T06:48:49;25.03;;;20.77;;
20324;SDS011;10320;49.482;11.256;2022-10-13T06:51:15;24.70;;;21.47;;
20324;SDS011;10320;49.482;11.256;2022-10-13T06:53:41;25.87;;;21.80;;
20324;SDS011;10320;49.482;11.256;2022-10-13T06:56:08;25.63;;;20.63;;
20324;SDS011;10320;49.482;11.256;2022-10-13T06:58:34;31.13;;;23.43;;
20324;SDS011;10320;49.482;11.256;2022-10-13T07:01:00;30.90;;;26.40;;
20324;SDS011;10320;49.482;11.256;2022-10-13T07:03:26;27.07;;;23.97;;
20324;SDS011;10320;49.482;11.256;2022-10-13T07:05:53;30.50;;;24.43;;
20324;SDS011;10320;49.482;11.256;2022-10-13T07:08:19;29.73;;;23.77;;
20324;SDS011;10320;49.482;11.256;2022-10-13T07:10:45;32.67;;;27.03;;
20324;SDS011;10320;49.482;11.256;2022-10-13T07:13:11;30.00;;;25.23;;
20324;SDS011;10320;49.482;11.256;2022-10-13T07:15:37;37.90;;;27.97;;
20324;SDS011;10320;49.482;11.256;2022-10-13T07:18:04;38.67;;;28.47;;
20324;SDS011;10320;49.482;11.256;2022-10-13T07:20:30;39.97;;;29.00;;
20324;SDS011;10320;49.482;11.256;2022-10-13T07:22:56;34.83;;;27.63;;
20324;SDS011;10320;49.482;11.256;2022-10-13T07:25:22;34.23;;;26.23;;
20324;SDS011;10320;49.482;11.256;2022-10-13T07:27:48;33.73;;;27.27;;
20324;SDS011;10320;49.482;11.256;2022-10-13T07:30:14;34.87;;;26.07;;
20324;SDS011;10320;49.482;11.256;2022-10-13T07:32:40;32.93;;;24.60;;
20324;SDS011;10320;49.482;11.256;2022-10-13T07:35:10;30.93;;;23.97;;
20324;SDS011;10320;49.482;11.256;2022-10-13T07:37:36;28.90;;;22.30;;
20324;SDS011;10320;49.482;11.256;2022-10-13T07:40:03;29.97;;;23.10;;
20324;SDS011;10320;49.482;11.256;2022-10-13T07:42:29;29.37;;;22.43;;
20324;SDS011;10320;49.482;11.256;2022-10-13T07:44:55;27.00;;;22.03;;
20324;SDS011;10320;49.482;11.256;2022-10-13T07:47:21;26.37;;;22.30;;
20324;SDS011;10320;49.482;11.256;2022-10-13T07:49:47;26.10;;;22.37;;
20324;SDS011;10320;49.482;11.256;2022-10-13T07:52:13;26.13;;;21.10;;
20324;SDS011;10320;49.482;11.256;2022-10-13T07:54:39;24.57;;;20.17;;
20324;SDS011;10320;49.482;11.256;2022-10-13T07:57:05;22.70;;;19.20;;
20324;SDS011;10320;49.482;11.256;2022-10-13T07:59:31;26.20;;;20.43;;
20324;SDS011;10320;49.482;11.256;2022-10-13T08:01:58;22.97;;;19.33;;
20324;SDS011;10320;49.482;11.256;2022-10-13T08:04:28;20.40;;;18.20;;
20324;SDS011;10320;49.482;11.256;2022-10-13T08:06:54;24.70;;;18.13;;
20324;SDS011;10320;49.482;11.256;2022-10-13T08:09:20;21.43;;;18.27;;
20324;SDS011;10320;49.482;11.256;2022-10-13T08:11:46;19.93;;;17.33;;
20324;SDS011;10320;49.482;11.256;2022-10-13T08:14:12;23.47;;;18.77;;
20324;SDS011;10320;49.482;11.256;2022-10-13T08:16:38;21.43;;;16.57;;
20324;SDS011;10320;49.482;11.256;2022-10-13T08:19:08;19.63;;;17.07;;
20324;SDS011;10320;49.482;11.256;2022-10-13T08:21:34;20.80;;;16.70;;
20324;SDS011;10320;49.482;11.256;2022-10-13T08:24:01;18.97;;;16.03;;
20324;SDS011;10320;49.482;11.256;2022-10-13T08:26:27;18.77;;;16.13;;
20324;SDS011;10320;49.482;11.256;2022-10-13T08:28:53;17.30;;;15.00;;
20324;SDS011;10320;49.482;11.256;2022-10-13T08:31:19;17.57;;;15.23;;
20324;SDS011;10320;49.482;11.256;2022-10-13T08:33:46;17.13;;;15.13;;
20324;SDS011;10320;49.482;11.256;2022-10-13T08:36:12;17.60;;;14.37;;
20324;SDS011;10320;49.482;11.256;2022-10-13T08:38:39;18.77;;;14.87;;
20324;SDS011;10320;49.482;11.256;2022-10-13T08:41:15;16.17;;;14.03;;
20324;SDS011;10320;49.482;11.256;2022-10-13T08:43:43;17.53;;;13.83;;
20324;SDS011;10320;49.482;11.256;2022-10-13T08:46:10;15.07;;;13.10;;
20324;SDS011;10320;49.482;11.256;2022-10-13T08:48:37;14.40;;;12.93;;
20324;SDS011;10320;49.482;11.256;2022-10-13T08:51:05;16.53;;;13.17;;
20324;SDS011;10320;49.482;11.256;2022-10-13T08:53:32;17.10;;;13.17;;
20324;SDS011;10320;49.482;11.256;2022-10-13T08:56:09;15.73;;;12.87;;
20324;SDS011;10320;49.482;11.256;2022-10-13T08:58:36;16.70;;;13.53;;
20324;SDS011;10320;49.482;11.256;2022-10-13T09:06:24;14.53;;;12.77;;
20324;SDS011;10320;49.482;11.256;2022-10-13T09:09:06;14.10;;;12.60;;
20324;SDS011;10320;49.482;11.256;2022-10-13T09:11:36;16.57;;;13.47;;
20324;SDS011;10320;49.482;11.256;2022-10-13T09:14:04;16.77;;;12.40;;
20324;SDS011;10320;49.482;11.256;2022-10-13T09:16:37;15.60;;;13.37;;
20324;SDS011;10320;49.482;11.256;2022-10-13T09:19:14;14.77;;;13.03;;
20324;SDS011;10320;49.482;11.256;2022-10-13T09:21:42;14.97;;;13.30;;
20324;SDS011;10320;49.482;11.256;2022-10-13T09:24:12;16.40;;;13.27;;
20324;SDS011;10320;49.482;11.256;2022-10-13T09:26:39;15.37;;;12.50;;
20324;SDS011;10320;49.482;11.256;2022-10-13T09:29:24;14.30;;;12.80;;
20324;SDS011;10320;49.482;11.256;2022-10-13T09:31:53;13.87;;;12.33;;
20324;SDS011;10320;49.482;11.256;2022-10-13T09:34:31;14.60;;;12.67;;
20324;SDS011;10320;49.482;11.256;2022-10-13T09:36:59;13.80;;;12.20;;
20324;SDS011;10320;49.482;11.256;2022-10-13T09:39:26;13.80;;;11.53;;
20324;SDS011;10320;49.482;11.256;2022-10-13T09:42:07;15.53;;;11.73;;
20324;SDS011;10320;49.482;11.256;2022-10-13T09:44:33;13.37;;;11.93;;
20324;SDS011;10320;49.482;11.256;2022-10-13T09:47:00;15.00;;;12.30;;
20324;SDS011;10320;49.482;11.256;2022-10-13T09:49:31;14.80;;;12.27;;
20324;SDS011;10320;49.482;11.256;2022-10-13T09:54:41;13.60;;;12.13;;
20324;SDS011;10320;49.482;11.256;2022-10-13T09:57:30;13.47;;;11.50;;
20324;SDS011;10320;49.482;11.256;2022-10-13T10:00:08;14.37;;;12.40;;
20324;SDS011;10320;49.482;11.256;2022-10-13T10:05:26;14.60;;;12.00;;
20324;SDS011;10320;49.482;11.256;2022-10-13T10:07:55;13.63;;;12.00;;
20324;SDS011;10320;49.482;11.256;2022-10-13T10:10:26;13.70;;;11.77;;
20324;SDS011;10320;49.482;11.256;2022-10-13T10:12:54;14.77;;;11.40;;
20324;SDS011;10320;49.482;11.256;2022-10-13T10:15:25;12.83;;;10.73;;
20324;SDS011;10320;49.482;11.256;2022-10-13T10:17:56;12.93;;;11.53;;
20324;SDS011;10320;49.482;11.256;2022-10-13T10:20:50;12.63;;;10.90;;
20324;SDS011;10320;49.482;11.256;2022-10-13T10:26:03;13.23;;;10.23;;
20324;SDS011;10320;49.482;11.256;2022-10-13T10:28:42;14.30;;;10.17;;
20324;SDS011;10320;49.482;11.256;2022-10-13T10:33:47;11.73;;;10.53;;
20324;SDS011;10320;49.482;11.256;2022-10-13T10:36:15;11.67;;;9.93;;
20324;SDS011;10320;49.482;11.256;2022-10-13T10:38:55;12.17;;;10.83;;
20324;SDS011;10320;49.482;11.256;2022-10-13T10:46:22;13.40;;;11.37;;
20324;SDS011;10320;49.482;11.256;2022-10-13T10:48:50;12.90;;;11.33;;
20324;SDS011;10320;49.482;11.256;2022-10-13T10:51:18;11.63;;;10.43;;
20324;SDS011;10320;49.482;11.256;2022-10-13T10:53:47;14.30;;;11.27;;
20324;SDS011;10320;49.482;11.256;2022-10-13T10:56:22;11.77;;;10.43;;
20324;SDS011;10320;49.482;11.256;2022-10-13T11:01:40;11.07;;;9.90;;
20324;SDS011;10320;49.482;11.256;2022-10-13T11:04:20;11.67;;;9.87;;
20324;SDS011;10320;49.482;11.256;2022-10-13T11:06:49;14.60;;;9.60;;
20324;SDS011;10320;49.482;11.256;2022-10-13T11:09:17;11.83;;;10.17;;
20324;SDS011;10320;49.482;11.256;2022-10-13T11:12:01;13.77;;;10.40;;
20324;SDS011;10320;49.482;11.256;2022-10-13T11:14:28;11.83;;;10.47;;
20324;SDS011;10320;49.482;11.256;2022-10-13T11:37:22;12.00;;;8.57;;
20324;SDS011;10320;49.482;11.256;2022-10-13T11:39:54;9.40;;;8.03;;
20324;SDS011;10320;49.482;11.256;2022-10-13T11:44:56;11.20;;;8.70;;
20324;SDS011;10320;49.482;11.256;2022-10-13T11:52:39;12.43;;;7.53;;
20324;SDS011;10320;49.482;11.256;2022-10-13T11:55:14;8.90;;;7.10;;
20324;SDS011;10320;49.482;11.256;2022-10-13T11:57:42;11.40;;;8.13;;
20324;SDS011;10320;49.482;11.256;2022-10-13T12:00:15;11.67;;;7.83;;
20324;SDS011;10320;49.482;11.256;2022-10-13T12:02:48;12.73;;;8.97;;
20324;SDS011;10320;49.482;11.256;2022-10-13T12:05:20;11.13;;;8.20;;
20324;SDS011;10320;49.482;11.256;2022-10-13T12:07:46;9.27;;;7.77;;
20324;SDS011;10320;49.482;11.256;2022-10-13T12:10:16;11.70;;;8.80;;
20324;SDS011;10320;49.482;11.256;2022-10-13T12:12:49;11.63;;;8.43;;
20324;SDS011;10320;49.482;11.256;2022-10-13T12:15:27;11.47;;;8.10;;
20324;SDS011;10320;49.482;11.256;2022-10-13T12:17:54;10.57;;;7.70;;
20324;SDS011;10320;49.482;11.256;2022-10-13T12:20:21;13.03;;;8.37;;
20324;SDS011;10320;49.482;11.256;2022-10-13T12:22:51;9.87;;;7.93;;
20324;SDS011;10320;49.482;11.256;2022-10-13T12:25:18;13.67;;;8.10;;
20324;SDS011;10320;49.482;11.256;2022-10-13T12:27:45;9.53;;;7.77;;
20324;SDS011;10320;49.482;11.256;2022-10-13T12:30:22;11.87;;;7.53;;
20324;SDS011;10320;49.482;11.256;2022-10-13T12:32:53;10.50;;;7.87;;
20324;SDS011;10320;49.482;11.256;2022-10-13T12:35:22;13.03;;;8.27;;
20324;SDS011;10320;49.482;11.256;2022-10-13T12:37:48;8.90;;;7.50;;
20324;SDS011;10320;49.482;11.256;2022-10-13T12:40:14;8.43;;;6.77;;
20324;SDS011;10320;49.482;11.256;2022-10-13T12:42:41;10.93;;;7.40;;
20324;SDS011;10320;49.482;11.256;2022-10-13T12:45:20;12.73;;;7.63;;
20324;SDS011;10320;49.482;11.256;2022-10-13T12:47:51;11.37;;;7.87;;
20324;SDS011;10320;49.482;11.256;2022-10-13T12:52:53;12.37;;;7.07;;
20324;SDS011;10320;49.482;11.256;2022-10-13T12:55:20;10.93;;;8.37;;
20324;SDS011;10320;49.482;11.256;2022-10-13T12:57:50;14.05;;;8.18;;
20324;SDS011;10320;49.482;11.256;2022-10-13T13:00:27;12.40;;;8.00;;
20324;SDS011;10320;49.482;11.256;2022-10-13T13:07:58;11.50;;;7.33;;
20324;SDS011;10320;49.482;11.256;2022-10-13T13:10:24;10.50;;;6.93;;
20324;SDS011;10320;49.482;11.256;2022-10-13T13:12:51;9.07;;;6.83;;
20324;SDS011;10320;49.482;11.256;2022-10-13T13:15:32;9.90;;;7.20;;
20324;SDS011;10320;49.482;11.256;2022-10-13T13:20:43;9.33;;;6.27;;
20324;SDS011;10320;49.482;11.256;2022-10-13T13:23:09;10.57;;;7.17;;
20324;SDS011;10320;49.482;11.256;2022-10-13T13:25:35;8.53;;;7.03;;
20324;SDS011;10320;49.482;11.256;2022-10-13T13:28:02;8.47;;;7.03;;
20324;SDS011;10320;49.482;11.256;2022-10-13T13:30:29;10.33;;;7.00;;
20324;SDS011;10320;49.482;11.256;2022-10-13T13:32:55;10.43;;;6.63;;
20324;SDS011;10320;49.482;11.256;2022-10-13T13:35:21;7.97;;;7.03;;
20324;SDS011;10320;49.482;11.256;2022-10-13T13:37:47;9.73;;;6.50;;
20324;SDS011;10320;49.482;11.256;2022-10-13T13:40:22;10.47;;;6.13;;
20324;SDS011;10320;49.482;11.256;2022-10-13T13:42:48;9.47;;;6.83;;
20324;SDS011;10320;49.482;11.256;2022-10-13T13:45:15;8.43;;;6.87;;
20324;SDS011;10320;49.482;11.256;2022-10-13T13:47:42;9.10;;;6.37;;
20324;SDS011;10320;49.482;11.256;2022-10-13T13:50:53;10.07;;;7.20;;
20324;SDS011;10320;49.482;11.256;2022-10-13T13:52:58;12.00;;;7.60;;
20324;SDS011;10320;49.482;11.256;2022-10-13T13:55:25;13.57;;;7.03;;
20324;SDS011;10320;49.482;11.256;2022-10-13T13:58:19;9.07;;;7.67;;
20324;SDS011;10320;49.482;11.256;2022-10-13T14:00:46;9.90;;;7.87;;
20324;SDS011;10320;49.482;11.256;2022-10-13T14:03:12;9.77;;;7.47;;
20324;SDS011;10320;49.482;11.256;2022-10-13T14:05:38;11.13;;;7.27;;
20324;SDS011;10320;49.482;11.256;2022-10-13T14:08:05;12.63;;;8.13;;
20324;SDS011;10320;49.482;11.256;2022-10-13T14:10:31;8.10;;;7.23;;
20324;SDS011;10320;49.482;11.256;2022-10-13T14:12:57;8.37;;;7.50;;
20324;SDS011;10320;49.482;11.256;2022-10-13T14:15:23;11.93;;;8.17;;
20324;SDS011;10320;49.482;11.256;2022-10-13T14:17:52;11.73;;;7.97;;
20324;SDS011;10320;49.482;11.256;2022-10-13T14:20:19;9.20;;;7.60;;
20324;SDS011;10320;49.482;11.256;2022-10-13T14:22:45;9.23;;;7.20;;
20324;SDS011;10320;49.482;11.256;2022-10-13T14:25:11;12.83;;;7.87;;
20324;SDS011;10320;49.482;11.256;2022-10-13T14:27:39;12.20;;;7.53;;
20324;SDS011;10320;49.482;11.256;2022-10-13T14:30:05;12.27;;;7.90;;
20324;SDS011;10320;49.482;11.256;2022-10-13T14:32:32;10.47;;;7.83;;
20324;SDS011;10320;49.482;11.256;2022-10-13T14:34:58;10.33;;;7.93;;
20324;SDS011;10320;49.482;11.256;2022-10-13T14:37:24;9.80;;;7.70;;
20324;SDS011;10320;49.482;11.256;2022-10-13T14:39:50;10.37;;;7.67;;
20324;SDS011;10320;49.482;11.256;2022-10-13T14:42:16;10.77;;;9.03;;
20324;SDS011;10320;49.482;11.256;2022-10-13T14:44:42;10.43;;;8.77;;
20324;SDS011;10320;49.482;11.256;2022-10-13T14:47:08;15.20;;;8.20;;
20324;SDS011;10320;49.482;11.256;2022-10-13T14:49:34;10.70;;;7.80;;
20324;SDS011;10320;49.482;11.256;2022-10-13T14:52:00;11.67;;;8.30;;
20324;SDS011;10320;49.482;11.256;2022-10-13T14:54:26;10.97;;;7.30;;
20324;SDS011;10320;49.482;11.256;2022-10-13T14:56:52;10.93;;;7.60;;
20324;SDS011;10320;49.482;11.256;2022-10-13T14:59:18;12.37;;;8.67;;
20324;SDS011;10320;49.482;11.256;2022-10-13T15:01:44;11.83;;;8.40;;
20324;SDS011;10320;49.482;11.256;2022-10-13T15:04:11;12.33;;;8.03;;
20324;SDS011;10320;49.482;11.256;2022-10-13T15:06:38;11.50;;;8.40;;
20324;SDS011;10320;49.482;11.256;2022-10-13T15:09:04;12.50;;;8.97;;
20324;SDS011;10320;49.482;11.256;2022-10-13T15:11:31;10.30;;;8.70;;
20324;SDS011;10320;49.482;11.256;2022-10-13T15:13:57;12.13;;;8.43;;
20324;SDS011;10320;49.482;11.256;2022-10-13T15:16:25;10.53;;;6.73;;
20324;SDS011;10320;49.482;11.256;2022-10-13T15:18:52;13.00;;;8.17;;
20324;SDS011;10320;49.482;11.256;2022-10-13T15:21:18;10.07;;;7.10;;
20324;SDS011;10320;49.482;11.256;2022-10-13T15:23:44;8.60;;;6.63;;
20324;SDS011;10320;49.482;11.256;2022-10-13T15:26:11;10.63;;;7.50;;
20324;SDS011;10320;49.482;11.256;2022-10-13T15:28:39;10.23;;;6.90;;
20324;SDS011;10320;49.482;11.256;2022-10-13T15:31:05;11.33;;;7.73;;
20324;SDS011;10320;49.482;11.256;2022-10-13T15:33:31;10.20;;;7.03;;
20324;SDS011;10320;49.482;11.256;2022-10-13T15:35:58;9.30;;;6.87;;
20324;SDS011;10320;49.482;11.256;2022-10-13T15:38:24;8.67;;;7.03;;
20324;SDS011;10320;49.482;11.256;2022-10-13T15:40:50;10.53;;;7.23;;